createdAt,value
2023-04-15T00:01:02.757Z,5.28
2023-04-15T00:06:04.504Z,4.80
2023-04-15T00:11:06.260Z,5.50
2023-04-15T00:16:09.065Z,6.68
2023-04-15T00:21:10.738Z,7.80
2023-04-15T00:26:12.626Z,8.77
2023-04-15T00:31:15.398Z,7.68
2023-04-15T00:36:17.693Z,6.85
2023-04-15T00:41:19.634Z,8.05
2023-04-15T00:46:22.584Z,7.50
2023-04-15T00:51:24.860Z,6.55
2023-04-15T00:56:28.728Z,5.80
2023-04-15T01:01:31.526Z,5.43
2023-04-15T01:06:33.494Z,6.43
2023-04-15T01:11:35.684Z,6.43
2023-04-15T01:16:39.818Z,6.15
2023-04-15T01:21:41.598Z,5.93
2023-04-15T01:26:44.590Z,5.65
2023-04-15T01:31:52.419Z,5.80
2023-04-15T01:36:54.195Z,5.97
2023-04-15T01:41:56.343Z,5.97
2023-04-15T01:46:58.645Z,5.70
2023-04-15T01:52:00.584Z,6.05
2023-04-15T01:57:02.376Z,6.80
2023-04-15T02:02:04.637Z,5.95
2023-04-15T02:07:07.098Z,5.82
2023-04-15T02:12:09.474Z,6.20
2023-04-15T02:17:11.200Z,5.75
2023-04-15T02:22:18.226Z,5.22
2023-04-15T02:27:19.929Z,5.47
2023-04-15T02:32:23.308Z,5.38
2023-04-15T02:37:27.379Z,4.70
2023-04-15T02:42:30.302Z,4.68
2023-04-15T02:47:32.033Z,4.38
2023-04-15T02:52:33.779Z,4.25
2023-04-15T02:57:39.262Z,4.72
2023-04-15T03:02:42.278Z,4.03
2023-04-15T03:07:44.165Z,4.30
2023-04-15T03:12:46.177Z,4.78
2023-04-15T03:17:49.567Z,5.32
2023-04-15T03:22:51.449Z,5.85
2023-04-15T03:27:53.260Z,6.13
2023-04-15T03:32:55.003Z,6.15
2023-04-15T03:37:57.099Z,6.47
2023-04-15T03:42:58.857Z,6.45
2023-04-15T03:48:11.483Z,6.40
2023-04-15T03:53:17.607Z,6.80
2023-04-15T03:58:19.359Z,6.07
2023-04-15T04:03:21.400Z,6.57
2023-04-15T04:08:23.307Z,5.70
2023-04-15T04:13:25.268Z,6.55
2023-04-15T04:18:26.970Z,5.90
2023-04-15T04:23:28.749Z,6.55
2023-04-15T04:28:30.516Z,5.90
2023-04-15T04:33:32.211Z,6.38
2023-04-15T04:38:34.003Z,5.78
2023-04-15T04:43:35.887Z,5.82
2023-04-15T04:48:37.623Z,5.45
2023-04-15T04:53:39.468Z,6.38
2023-04-15T04:58:41.566Z,6.35
2023-04-15T05:03:43.530Z,6.00
2023-04-15T05:08:47.007Z,6.25
2023-04-15T05:13:48.758Z,5.80
2023-04-15T05:18:50.415Z,5.72
2023-04-15T05:23:52.342Z,5.38
2023-04-15T05:28:54.204Z,6.18
2023-04-15T05:33:55.932Z,5.80
2023-04-15T05:38:57.666Z,5.68
2023-04-15T05:43:59.365Z,5.68
2023-04-15T05:49:01.233Z,4.97
2023-04-15T05:54:03.233Z,4.70
2023-04-15T05:59:04.968Z,4.97
2023-04-15T06:04:06.843Z,5.55
2023-04-15T06:09:08.560Z,4.60
2023-04-15T06:14:10.316Z,4.05
2023-04-15T06:19:12.406Z,4.38
2023-04-15T06:24:14.308Z,4.50
2023-04-15T06:29:16.244Z,4.63
2023-04-15T06:34:18.016Z,4.28
2023-04-15T06:39:19.721Z,4.93
2023-04-15T06:44:21.450Z,4.90
2023-04-15T06:49:23.177Z,5.38
2023-04-15T06:54:24.866Z,5.72
2023-04-15T06:59:27.304Z,6.28
2023-04-15T07:04:29.145Z,5.97
2023-04-15T07:09:31.208Z,6.00
2023-04-15T07:14:32.938Z,7.10
2023-04-15T07:19:34.605Z,7.10
2023-04-15T07:24:36.372Z,6.03
2023-04-15T07:29:38.196Z,6.88
2023-04-15T07:34:39.969Z,8.57
2023-04-15T07:39:41.745Z,8.10
2023-04-15T07:44:43.439Z,8.02
2023-04-15T07:49:45.240Z,9.52
2023-04-15T07:54:46.935Z,8.85
2023-04-15T07:59:48.631Z,9.00
2023-04-15T08:04:50.408Z,9.45
2023-04-15T08:09:52.368Z,8.82
2023-04-15T08:14:55.479Z,9.52
2023-04-15T08:19:57.281Z,8.52
2023-04-15T08:24:59.532Z,10.02
2023-04-15T08:30:04.210Z,9.35
2023-04-15T08:35:07.838Z,10.30
2023-04-15T08:40:10.821Z,9.95
2023-04-15T08:45:12.527Z,10.93
2023-04-15T08:50:15.926Z,10.90
2023-04-15T08:55:17.928Z,11.52
2023-04-15T09:00:19.816Z,11.25
2023-04-15T09:05:21.804Z,10.65
2023-04-15T09:10:23.645Z,11.57
2023-04-15T09:15:29.849Z,11.43
2023-04-15T09:20:38.547Z,13.02
2023-04-15T09:25:44.123Z,13.50
2023-04-15T09:30:49.187Z,13.73
2023-04-15T09:36:04.716Z,14.32
2023-04-15T09:41:19.623Z,13.95
2023-04-15T09:46:40.284Z,14.05
2023-04-15T09:51:46.553Z,15.63
2023-04-15T09:56:56.194Z,16.38
2023-04-15T10:01:58.459Z,17.25
2023-04-15T10:07:01.040Z,16.73
2023-04-15T10:12:04.797Z,19.08
2023-04-15T10:17:11.335Z,17.67
2023-04-15T10:22:14.555Z,18.33
2023-04-15T10:27:18.132Z,18.80
2023-04-15T10:32:21.311Z,18.55
2023-04-15T10:37:33.642Z,19.38
2023-04-15T10:42:35.626Z,19.05
2023-04-15T10:47:37.600Z,19.65
2023-04-15T10:52:42.615Z,18.98
2023-04-15T10:57:45.168Z,18.88
2023-04-15T11:02:57.326Z,18.70
2023-04-15T11:07:59.397Z,19.60
2023-04-15T11:13:14.733Z,19.88
2023-04-15T11:18:24.857Z,18.00
2023-04-15T11:23:38.223Z,17.05
2023-04-15T11:28:41.812Z,17.58
2023-04-15T11:33:53.995Z,15.73
2023-04-15T11:38:57.505Z,15.48
2023-04-15T11:43:59.309Z,14.75
2023-04-15T11:49:01.651Z,14.85
2023-04-15T11:54:03.924Z,14.07
2023-04-15T11:59:05.897Z,14.55
2023-04-15T12:04:17.056Z,12.88
2023-04-15T12:09:20.332Z,13.77
2023-04-15T12:14:28.687Z,12.70
2023-04-15T12:19:35.352Z,11.88
2023-04-15T12:24:38.022Z,13.60
2023-04-15T12:29:41.883Z,12.13
2023-04-15T12:34:49.679Z,10.02
2023-04-15T12:39:52.261Z,9.55
2023-04-15T12:44:54.251Z,9.38
2023-04-15T12:49:55.969Z,8.20
2023-04-15T12:54:57.655Z,7.70
2023-04-15T12:59:59.372Z,8.10
2023-04-15T13:05:01.185Z,6.38
2023-04-15T13:10:02.973Z,5.35
2023-04-15T13:15:05.799Z,6.20
2023-04-15T13:20:08.889Z,6.80
2023-04-15T13:25:11.015Z,7.63
2023-04-15T13:30:13.362Z,6.53
2023-04-15T13:35:15.419Z,5.70
2023-04-15T13:40:17.447Z,6.20
2023-04-15T13:45:19.712Z,5.95
2023-04-15T13:50:22.076Z,5.88
2023-04-15T13:55:26.365Z,6.28
2023-04-15T14:00:29.165Z,6.47
2023-04-15T14:05:31.267Z,6.18
2023-04-15T14:10:33.389Z,6.35
2023-04-15T14:15:35.104Z,7.43
2023-04-15T14:20:36.779Z,6.78
2023-04-15T14:25:39.440Z,7.07
2023-04-15T14:30:41.198Z,5.95
2023-04-15T14:35:43.018Z,7.05
2023-04-15T14:40:45.189Z,5.32
2023-04-15T14:45:47.068Z,5.40
2023-04-15T14:50:49.062Z,6.10
2023-04-15T14:55:50.818Z,6.53
2023-04-15T15:00:52.748Z,6.40
2023-04-15T15:05:54.697Z,6.28
2023-04-15T15:10:59.353Z,6.28
2023-04-15T15:16:01.142Z,6.85
2023-04-15T15:21:02.862Z,5.95
2023-04-15T15:26:05.321Z,6.05
2023-04-15T15:31:07.065Z,6.30
2023-04-15T15:36:10.759Z,6.63
2023-04-15T15:41:12.482Z,6.47
2023-04-15T15:46:14.656Z,7.10
2023-04-15T15:51:16.394Z,6.80
2023-04-15T15:56:18.062Z,6.93
2023-04-15T16:01:19.969Z,7.20
2023-04-15T16:06:22.304Z,7.15
2023-04-15T16:11:24.264Z,7.10
2023-04-15T16:16:26.032Z,7.28
2023-04-15T16:21:28.317Z,7.13
2023-04-15T16:26:30.104Z,8.05
2023-04-15T16:31:32.027Z,7.80
2023-04-15T16:36:34.853Z,7.97
2023-04-15T16:41:38.372Z,8.10
2023-04-15T16:46:41.042Z,9.13
2023-04-15T16:51:42.850Z,8.98
2023-04-15T16:56:44.766Z,7.38
2023-04-15T17:01:46.863Z,8.30
2023-04-15T17:06:48.914Z,8.82
2023-04-15T17:11:50.759Z,9.80
2023-04-15T17:16:52.533Z,9.50
2023-04-15T17:21:55.063Z,10.00
2023-04-15T17:26:57.388Z,9.40
2023-04-15T17:31:59.863Z,9.25
2023-04-15T17:37:01.540Z,10.75
2023-04-15T17:42:03.246Z,9.38
2023-04-15T17:47:05.116Z,9.82
2023-04-15T17:52:07.075Z,9.50
2023-04-15T17:57:09.599Z,15.02
2023-04-15T18:02:11.815Z,10.10
2023-04-15T18:07:15.068Z,11.52
2023-04-15T18:12:16.833Z,10.13
2023-04-15T18:17:18.730Z,10.48
2023-04-15T18:22:20.632Z,10.95
2023-04-15T18:27:22.667Z,10.93
2023-04-15T18:32:25.042Z,11.27
2023-04-15T18:37:30.845Z,10.45
2023-04-15T18:42:32.624Z,10.45
2023-04-15T18:47:34.420Z,10.68
2023-04-15T18:52:36.436Z,11.10
2023-04-15T18:57:42.496Z,12.02
2023-04-15T19:02:46.194Z,12.02
2023-04-15T19:07:48.030Z,11.93
2023-04-15T19:12:49.718Z,12.85
2023-04-15T19:17:51.443Z,11.50
2023-04-15T19:22:54.662Z,11.55
2023-04-15T19:27:57.898Z,12.23
2023-04-15T19:33:01.402Z,15.18
2023-04-15T19:38:05.317Z,12.65
2023-04-15T19:43:07.532Z,13.70
2023-04-15T19:48:09.399Z,13.10
2023-04-15T19:53:11.116Z,12.98
2023-04-15T19:58:12.798Z,13.07
2023-04-15T20:03:14.770Z,11.95
2023-04-15T20:08:17.828Z,12.30
2023-04-15T20:13:19.552Z,13.43
2023-04-15T20:18:21.274Z,14.13
2023-04-15T20:23:23.051Z,13.75
2023-04-15T20:28:27.432Z,14.63
2023-04-15T20:33:29.405Z,14.25
2023-04-15T20:38:31.243Z,14.80
2023-04-15T20:43:33.206Z,13.77
2023-04-15T20:48:35.194Z,13.88
2023-04-15T20:53:38.200Z,13.63
2023-04-15T20:58:40.167Z,13.55
2023-04-15T21:03:42.251Z,12.68
2023-04-15T21:08:44.264Z,13.27
2023-04-15T21:13:46.469Z,13.27
2023-04-15T21:18:48.180Z,13.48
2023-04-15T21:23:49.877Z,13.43
2023-04-15T21:28:51.855Z,13.43
2023-04-15T21:33:53.621Z,13.10
2023-04-15T21:38:55.500Z,14.05
2023-04-15T21:43:57.337Z,14.80
2023-04-15T21:48:59.365Z,15.00
2023-04-15T21:54:01.275Z,13.98
2023-04-15T21:59:03.236Z,12.45
2023-04-15T22:04:07.507Z,13.85
2023-04-15T22:09:11.955Z,15.40
2023-04-15T22:14:14.979Z,14.95
2023-04-15T22:19:17.588Z,15.55
2023-04-15T22:24:34.403Z,14.93
2023-04-15T22:29:41.724Z,16.85
2023-04-15T22:34:43.409Z,15.50
2023-04-15T22:39:45.070Z,17.90
2023-04-15T22:44:46.897Z,18.23
2023-04-15T22:49:48.564Z,16.83
2023-04-15T22:54:50.299Z,16.73
2023-04-15T22:59:51.964Z,16.42
2023-04-15T23:04:53.794Z,15.77
2023-04-15T23:09:55.599Z,15.40
2023-04-15T23:14:57.284Z,15.82
2023-04-15T23:19:59.005Z,16.42
2023-04-15T23:25:00.667Z,16.27
2023-04-15T23:30:02.836Z,16.23
2023-04-15T23:35:05.133Z,16.48
2023-04-15T23:40:07.481Z,15.48
2023-04-15T23:45:10.388Z,15.52
2023-04-15T23:50:12.133Z,16.27
2023-04-15T23:55:13.827Z,16.10
